Flight Track Log - Related Links

Times and Time Zones

All times are in EDT time to prevent confusion due to time zone crossing. See the EJA727 flight status page for this flight to view local times or setup timezone preferences in your user account.

Time Position Orientation Groundspeed Altitude Reporting Facility
EDT Latitude Longitude Course Direction KTS MPH feet Rate Location/Type
Tue 05:37:00 PM 28.5196 -81.4441 240° Southwest  Level FlightAware Approximate
Tue 05:38:00 PM 28.5004 -81.5663 221° Southwest  Level FlightAware Approximate
Tue 05:39:00 PM 28.4919 -81.6971 265° West  Level FlightAware Approximate
Tue 05:40:00 PM 28.4802 -81.8279 263° West  Level FlightAware Approximate
Tue 05:41:00 PM 28.4667 -81.9583 270° West  Level FlightAware Approximate
Tue 05:42:00 PM 28.4465 -82.0843 257° West  Level FlightAware Approximate
Tue 05:43:00 PM 28.4276 -82.2136 264° West  Level FlightAware Approximate
Tue 05:44:00 PM 28.4167 -82.3444 270° West  Level FlightAware Approximate
Tue 05:45:00 PM 28.3779 -82.4663 249° West  Level FlightAware Approximate
Tue 05:45:22 PM 28.5500 -81.3000 240° Southwest 199 229 900  Level Orlando TRACON
Tue 05:45:52 PM 28.5833 -81.2833 24° Northeast 205 236 1,400 400 Climbing Orlando TRACON
Tue 05:46:00 PM 28.3252 -82.5829 240° Southwest  Level FlightAware Approximate
Tue 05:46:52 PM 28.6167 -81.2333 53° Northeast 205 236 1,500  Level Orlando TRACON
Tue 05:47:00 PM 28.2816 -82.7041 244° Southwest  Level FlightAware Approximate
Tue 05:47:52 PM 28.6167 -81.1833 90° East 193 222 2,000  Level Orlando TRACON
Tue 05:48:00 PM 28.2315 -82.8223 249° West  Level FlightAware Approximate
Tue 05:48:52 PM 28.5667 -81.1667 164° South 182 209 2,100  Level Orlando TRACON
Tue 05:49:00 PM 28.1906 -82.9449 249° West  Level FlightAware Approximate
Tue 05:49:52 PM 28.5167 -81.1833 196° South 235 270 3,900  Level Orlando TRACON
Tue 05:50:00 PM 28.1365 -83.0604 240° Southwest  Level FlightAware Approximate
Tue 05:50:52 PM 28.4500 -81.2167 204° Southwest 255 293 4,000  Level Orlando TRACON
Tue 05:51:46 PM 28.4333 -81.2833 254° West 263 303 4,000 1,000 Level Orlando TRACON
Tue 05:52:46 PM 28.4167 -81.3667 257° West 257 296 5,900 3,190 Climbing Orlando TRACON
Tue 05:53:52 PM 28.4167 -81.4667 270° West 288 331 10,700 3,714 Climbing Orlando TRACON
Tue 05:54:52 PM 28.4000 -81.5667 259° West 343 395 13,700 2,000 Climbing Orlando TRACON
Tue 05:56:28 PM 28.3867 -81.7342 265° West 365 420 15,900 846 Climbing Jacksonville Center
Tue 05:57:28 PM 28.3731 -81.8522 263° West 375 432 15,900 850 Level Jacksonville Center
Tue 05:58:28 PM 28.3447 -81.9633 254° West 375 432 17,600 2,000 Climbing Jacksonville Center
Tue 05:59:28 PM 28.2956 -82.0653 241° Southwest 368 423 19,900 1,900 Climbing Jacksonville Center
Tue 06:00:28 PM 28.2503 -82.1761 245° Southwest 373 429 21,400 1,500 Climbing Jacksonville Center
Tue 06:01:28 PM 28.2175 -82.2989 253° West 397 457 22,900 1,500 Climbing Jacksonville Center
Tue 06:02:28 PM 28.1844 -82.4239 253° West 410 472 24,400 1,550 Climbing Jacksonville Center
Tue 06:03:28 PM 28.1600 -82.5558 258° West 421 484 26,000 1,688 Climbing Jacksonville Center
Tue 06:05:40 PM 28.1044 -82.8578 258° West 445 512 29,800 1,508 Climbing Miami Center
Tue 06:06:39 PM 28.0775 -82.9975 258° West 450 518 30,800 1,109 Climbing Miami Center
Tue 06:07:39 PM 28.0528 -83.1394 259° West 455 524 32,000 1,240 Climbing Miami Center
Tue 06:08:40 PM 28.0256 -83.2836 258° West 470 541 33,300 1,438 Climbing Miami Center
Tue 06:09:40 PM 28.0022 -83.4258 260° West 470 541 34,900 1,600 Climbing Miami Center
Tue 06:10:40 PM 27.9917 -83.5683 265° West 463 533 36,500 1,600 Climbing Miami Center
Tue 06:11:40 PM 27.9786 -83.7086 264° West 463 533 38,100 1,500 Climbing Miami Center
Tue 06:12:40 PM 27.9742 -83.8444 268° West 453 521 39,500 950 Climbing Miami Center
Tue 06:13:40 PM 27.9653 -83.9872 266° West 453 521 40,000 250 Climbing Miami Center
Tue 06:14:40 PM 27.9561 -84.1275 266° West 453 521 40,000  Level Miami Center
Tue 06:15:40 PM 27.9469 -84.2653 266° West 458 527 40,000  Level Miami Center
Tue 06:17:40 PM 27.9286 -84.5344 266° West 435 501 40,000  Level Jacksonville Center
Tue 06:18:40 PM 27.9228 -84.6753 267° West 435 501 40,000  Level Jacksonville Center
Tue 06:19:40 PM 27.9122 -84.8231 265° West 441 507 40,000  Level Jacksonville Center
Tue 06:20:40 PM 27.9039 -84.9567 266° West 436 502 40,000  Level Jacksonville Center
Tue 06:21:40 PM 27.8933 -85.0903 265° West 434 499 40,000  Level Jacksonville Center
Tue 06:22:40 PM 27.8869 -85.2239 267° West 434 499 40,000  Level Jacksonville Center
Tue 06:23:40 PM 27.9156 -85.3583 284° West 433 498 40,000  Level Jacksonville Center
Tue 06:24:40 PM 27.9547 -85.4956 288° West 451 519 40,000  Level Jacksonville Center
Tue 06:25:40 PM 27.9956 -85.6306 289° West 456 525 40,000  Level Jacksonville Center
Tue 06:26:40 PM 28.0306 -85.7514 288° West 456 525 40,000  Level Jacksonville Center
Tue 06:27:40 PM 28.0753 -85.8917 290° West 461 531 40,000  Level Jacksonville Center
Tue 06:28:40 PM 28.1158 -86.0292 289° West 466 536 40,000  Level Jacksonville Center
Tue 06:29:40 PM 28.1564 -86.1669 288° West 466 536 40,000  Level Jacksonville Center
Tue 06:30:40 PM 28.1986 -86.3072 289° West 464 534 40,000  Level Jacksonville Center
Tue 06:31:40 PM 28.2406 -86.4500 288° West 472 543 40,000  Level Jacksonville Center
Tue 06:32:40 PM 28.2767 -86.5761 288° West 459 528 40,000  Level Jacksonville Center
Tue 06:33:40 PM 28.3164 -86.7119 288° West 460 529 40,000  Level Jacksonville Center
Tue 06:34:40 PM 28.3581 -86.8550 288° West 460 529 40,000  Level Jacksonville Center
Tue 06:35:40 PM 28.3978 -86.9886 289° West 460 529 40,000  Level Jacksonville Center
Tue 06:37:38 PM 28.4739 -87.2489 288° West 454 522 40,000  Level Houston Center
Tue 06:38:40 PM 28.5131 -87.3858 288° West 455 524 40,000  Level Houston Center
Tue 06:39:42 PM 28.5525 -87.5211 288° West 452 520 40,000  Level Houston Center
Tue 06:40:44 PM 28.5989 -87.6825 288° West 449 517 40,000  Level Houston Center
Tue 06:41:45 PM 28.6369 -87.8178 288° West 449 517 40,000  Level Houston Center
Tue 06:42:47 PM 28.6744 -87.9517 288° West 446 513 40,000  Level Houston Center
Tue 06:43:49 PM 28.7150 -88.0967 288° West 450 518 40,000  Level Houston Center
Tue 06:44:51 PM 28.7425 -88.2408 282° West 446 513 40,000 -48 Level Houston Center
Tue 06:45:53 PM 28.7622 -88.3803 279° West 446 513 39,900  Descending Houston Center
Tue 06:46:55 PM 28.7803 -88.5183 279° West 443 510 40,000 49 Climbing Houston Center
Tue 06:47:56 PM 28.7989 -88.6564 279° West 441 507 40,000  Level Houston Center
Tue 06:48:58 PM 28.8164 -88.7922 278° West 436 502 40,000  Level Houston Center
Tue 06:50:00 PM 28.8336 -88.9283 278° West 434 499 40,000  Level Houston Center
Tue 06:51:02 PM 28.8550 -89.0903 279° West 432 497 40,000  Level Houston Center
Tue 06:52:04 PM 28.8719 -89.2256 278° West 432 497 40,000  Level Houston Center
Tue 06:53:05 PM 28.8897 -89.3617 279° West 433 498 40,000  Level Houston Center
Tue 06:54:07 PM 28.9064 -89.4978 278° West 433 498 40,000 -48 Level Houston Center
Tue 06:55:09 PM 28.9228 -89.6347 278° West 435 501 39,900  Descending Houston Center
Tue 06:56:11 PM 28.9389 -89.7711 278° West 434 499 40,000 48 Climbing Houston Center
Tue 06:57:13 PM 28.9567 -89.9083 278° West 436 502 40,000  Level Houston Center
Tue 06:58:14 PM 28.9731 -90.0444 278° West 433 498 40,000  Level Houston Center
Tue 06:59:16 PM 28.9928 -90.2078 278° West 433 498 40,000  Level Houston Center
Tue 07:00:18 PM 29.0089 -90.3450 278° West 435 501 40,000  Level Houston Center
Tue 07:01:20 PM 29.0244 -90.4800 278° West 430 495 40,000  Level Houston Center
Tue 07:02:21 PM 29.0417 -90.6150 278° West 429 494 40,000  Level Houston Center
Tue 07:03:23 PM 29.0561 -90.7494 277° West 428 493 40,000  Level Houston Center
Tue 07:04:25 PM 29.0703 -90.8811 277° West 421 484 40,000  Level Houston Center
Tue 07:05:27 PM 29.0856 -91.0139 278° West 422 486 40,000  Level Houston Center
Tue 07:06:29 PM 29.1000 -91.1742 276° West 423 487 40,000  Level Houston Center
Tue 07:07:30 PM 29.1097 -91.3081 275° West 422 486 40,000  Level Houston Center
Tue 07:08:32 PM 29.1181 -91.4417 274° West 423 487 40,000  Level Houston Center
Tue 07:09:34 PM 29.1292 -91.5761 275° West 424 488 40,000  Level Houston Center
Tue 07:10:36 PM 29.1392 -91.7197 275° West 423 487 40,000  Level Houston Center
Tue 07:11:38 PM 29.1483 -91.8528 275° West 423 487 40,000  Level Houston Center
Tue 07:12:39 PM 29.1572 -91.9867 274° West 423 487 40,000  Level Houston Center
Tue 07:13:41 PM 29.1658 -92.1219 274° West 426 490 40,000  Level Houston Center
Tue 07:14:43 PM 29.1753 -92.2558 275° West 423 487 40,000  Level Houston Center
Tue 07:15:45 PM 29.1833 -92.3883 274° West 419 482 40,000  Level Houston Center
Tue 07:16:46 PM 29.1942 -92.5458 275° West 414 476 40,000  Level Houston Center
Tue 07:17:48 PM 29.2017 -92.6775 274° West 415 478 40,000  Level Houston Center
Tue 07:18:50 PM 29.2106 -92.8069 275° West 408 470 40,000 -968 Level Houston Center
Tue 07:19:52 PM 29.2192 -92.9389 274° West 413 475 38,000 -2,032 Descending Houston Center
Tue 07:20:54 PM 29.2267 -93.0686 274° West 410 472 35,800 -2,226 Descending Houston Center
Tue 07:21:56 PM 29.2344 -93.1989 274° West 409 471 33,400 -2,293 Descending Houston Center
Tue 07:22:57 PM 29.2419 -93.3261 274° West 402 463 31,100 -2,488 Descending Houston Center
Tue 07:23:59 PM 29.2503 -93.4864 273° West 418 481 28,300 -2,468 Descending Houston Center
Tue 07:25:01 PM 29.2586 -93.6247 274° West 432 497 26,000 -2,274 Descending Houston Center
Tue 07:26:03 PM 29.2619 -93.7589 272° West 425 489 23,600 -2,177 Descending Houston Center
Tue 07:27:05 PM 29.2625 -93.8811 270° West 410 472 21,500 -2,146 Descending Houston Center
Tue 07:28:06 PM 29.2636 -94.0117 271° West 411 473 19,200 -2,460 Descending Houston Center
Tue 07:28:45 PM 29.2650 -94.1117 271° West 405 466 17,400 -2,520 Descending Houston Center
Tue 07:29:46 PM 29.2650 -94.2386 270° West 382 440 15,000 -2,311 Descending Houston Center
Tue 07:30:47 PM 29.2653 -94.3464 270° West 326 375 12,700 -1,488 Descending Houston Center
Tue 07:31:47 PM 29.2664 -94.4397 271° West 282 325 12,000 -331 Descending Houston Center
Tue 07:32:54 PM 29.2931 -94.5394 287° West 287 330 12,000 -689 Level Houston Center
Tue 07:33:49 PM 29.3297 -94.6139 299° West 287 330 10,600 -1,500 Descending Houston Center
Tue 07:34:50 PM 29.3686 -94.6906 300° West 280 322 9,100 -1,266 Descending Houston Center
Tue 07:35:57 PM 29.4106 -94.7764 299° West 275 316 7,900 -1,039 Descending Houston Center
Tue 07:36:57 PM 29.4472 -94.8511 299° West 269 310 6,900 -934 Descending Houston Center
Tue 07:37:59 PM 29.4861 -94.9278 300° West 269 310 6,000 -439 Descending Houston Center
Tue 07:39:00 PM 29.5225 -95.0025 299° West 270 311 6,000  Level Houston Center
Tue 07:40:00 PM 29.5592 -95.0797 299° West 276 318 6,000  Level Houston Center
Tue 07:41:01 PM 29.5922 -95.1622 295° West 273 314 6,000  Level Houston Center
Tue 07:42:02 PM 29.5592 -95.2358 243° Southwest 238 274 6,000 -836 Level Houston Center
Tue 07:43:03 PM 29.5158 -95.2917 228° Southwest 232 267 4,300 -1,869 Descending Houston Center
Tue 07:44:04 PM 29.5233 -95.3483 279° West 213 245 2,200 -1,516 Descending Houston Center
Tue 07:44:34 PM 29.5417 -95.3556 341° North 225 259 2,000 -590 Descending Houston Center
Tue 07:45:05 PM 29.5781 -95.3514 North 191 220 1,600 -689 Descending Houston Center
Tue 07:45:35 PM 29.5911 -95.3406 36° Northeast 200 230 1,300 -787 Descending Houston Center
Tue 07:46:06 PM 29.6128 -95.3158 45° Northeast 147 169 800 -774 Descending Houston Center
Tue 07:46:37 PM 29.6214 -95.3058 45° Northeast 171 197 500 -452 Descending Houston Center
Tue 07:47:39 PM 29.6550 -95.2694 43° Northeast 159 183 100 -387 Descending Houston Center

Login

Don't have an account? Register now (free) for customized features, flight alerts, and more!